Time;durP1;ratioP1;P1;durP2;ratioP2;P2;SDS_P1;SDS_P2;PMS_P1;PMS_P2;Temp;Humidity;BMP_temperature;BMP_pressure;BME280_temperature;BME280_humidity;BME280_pressure;Samples;Min_cycle;Max_cycle;Signal;HPM_P1;HPM_P2
2023/08/27 00:01:25;;;;;;;6.03;4.90;;;13.80;99.90;;;;;;5144154;27;20104;-71
2023/08/27 00:03:51;;;;;;;5.82;4.82;;;13.80;99.90;;;;;;5133947;27;20472;-72
2023/08/27 00:06:17;;;;;;;5.65;4.68;;;13.80;99.90;;;;;;5134194;27;20078;-71
2023/08/27 00:08:42;;;;;;;5.78;4.50;;;13.80;99.90;;;;;;5134013;27;20039;-71
2023/08/27 00:11:08;;;;;;;5.90;4.68;;;13.80;99.90;;;;;;5133690;27;20054;-71
2023/08/27 00:13:34;;;;;;;6.40;4.22;;;13.70;99.90;;;;;;5143355;27;20039;-71
2023/08/27 00:16:00;;;;;;;6.65;4.82;;;13.70;99.90;;;;;;5138303;27;20043;-71
2023/08/27 00:18:26;;;;;;;6.75;4.57;;;13.70;99.90;;;;;;5136272;27;20039;-71
2023/08/27 00:20:51;;;;;;;6.07;4.75;;;13.70;99.90;;;;;;5143210;27;20050;-71
2023/08/27 00:23:17;;;;;;;6.13;4.65;;;13.70;99.90;;;;;;5134004;27;20088;-71
2023/08/27 00:25:43;;;;;;;6.43;4.75;;;13.70;99.90;;;;;;5140128;27;20043;-71
2023/08/27 00:28:12;;;;;;;6.75;4.70;;;13.70;99.90;;;;;;5133842;27;20086;-71
2023/08/27 00:30:38;;;;;;;4.78;3.80;;;13.70;99.90;;;;;;5142442;27;20372;-71
2023/08/27 00:33:04;;;;;;;5.18;4.15;;;13.70;99.90;;;;;;5133302;27;20050;-71
2023/08/27 00:35:30;;;;;;;5.82;4.32;;;13.70;99.90;;;;;;5134098;27;20064;-71
2023/08/27 00:37:56;;;;;;;5.28;4.10;;;13.70;99.90;;;;;;5116676;27;20031;-70
2023/08/27 00:40:21;;;;;;;7.25;4.65;;;13.70;99.90;;;;;;5134522;27;20039;-71
2023/08/27 00:42:47;;;;;;;5.30;4.47;;;13.60;99.90;;;;;;5143671;27;20046;-71
2023/08/27 00:45:13;;;;;;;6.93;4.38;;;13.60;99.90;;;;;;5140298;27;20050;-71
2023/08/27 00:47:39;;;;;;;5.43;3.95;;;13.60;99.90;;;;;;5145669;27;20068;-70
2023/08/27 00:50:08;;;;;;;5.07;4.00;;;13.70;99.90;;;;;;5118183;27;20081;-71
2023/08/27 00:52:34;;;;;;;6.28;4.55;;;13.60;99.90;;;;;;5143839;27;20051;-71
2023/08/27 00:55:01;;;;;;;6.25;3.75;;;13.60;99.90;;;;;;5133744;27;20130;-71
2023/08/27 00:57:28;;;;;;;5.30;3.58;;;13.60;99.90;;;;;;5133258;27;20051;-71
2023/08/27 00:59:55;;;;;;;5.40;3.75;;;13.50;99.90;;;;;;5133439;27;20373;-71
2023/08/27 01:02:21;;;;;;;5.57;3.90;;;13.50;99.90;;;;;;5134188;27;20051;-70
2023/08/27 01:04:47;;;;;;;5.50;4.07;;;13.40;99.90;;;;;;5152570;27;20049;-71
2023/08/27 01:07:26;;;;;;;5.30;4.07;;;13.40;99.90;;;;;;5133894;27;20071;-70
2023/08/27 01:10:08;;;;;;;5.05;4.03;;;13.40;99.90;;;;;;5133696;27;20043;-70
2023/08/27 01:12:43;;;;;;;5.05;3.88;;;13.40;99.90;;;;;;5145752;27;20480;-71
2023/08/27 01:15:10;;;;;;;5.80;3.70;;;13.40;99.90;;;;;;5115879;28;20126;-70
2023/08/27 01:17:36;;;;;;;5.45;4.18;;;13.40;99.90;;;;;;5145792;27;20503;-71
2023/08/27 01:20:05;;;;;;;5.57;4.07;;;13.30;99.90;;;;;;5133834;27;20134;-71
2023/08/27 01:22:31;;;;;;;4.88;4.07;;;13.30;99.90;;;;;;5133824;27;20130;-71
2023/08/27 01:24:57;;;;;;;5.00;4.15;;;13.40;99.90;;;;;;5133633;27;20114;-69
2023/08/27 01:27:34;;;;;;;5.07;4.28;;;13.30;99.90;;;;;;5133320;27;20027;-70
2023/08/27 01:30:11;;;;;;;5.00;4.38;;;13.30;99.90;;;;;;5133994;27;20387;-70
2023/08/27 01:32:49;;;;;;;5.65;4.30;;;13.30;99.90;;;;;;5133685;27;20050;-70
2023/08/27 01:35:15;;;;;;;5.07;4.25;;;13.30;99.90;;;;;;5143808;27;20053;-70
2023/08/27 01:37:41;;;;;;;5.25;4.57;;;13.30;99.90;;;;;;5145803;27;20039;-70
2023/08/27 01:40:08;;;;;;;7.03;4.80;;;13.40;99.90;;;;;;5144810;27;20050;-70
2023/08/27 01:42:38;;;;;;;5.95;4.75;;;13.40;99.90;;;;;;5133358;27;20118;-70
2023/08/27 01:45:06;;;;;;;6.13;4.97;;;13.40;99.90;;;;;;5134575;27;20406;-70
2023/08/27 01:47:32;;;;;;;5.22;4.53;;;13.40;99.90;;;;;;5124367;27;20054;-70
2023/08/27 01:49:58;;;;;;;5.65;4.63;;;13.40;99.90;;;;;;5154496;27;20038;-70
2023/08/27 01:52:23;;;;;;;7.22;4.45;;;13.40;99.90;;;;;;5152378;27;20068;-70
2023/08/27 01:54:49;;;;;;;6.70;4.72;;;13.50;99.90;;;;;;5137417;27;20043;-70
2023/08/27 01:57:15;;;;;;;5.63;4.82;;;13.50;99.90;;;;;;5149330;27;20039;-70
2023/08/27 01:59:40;;;;;;;6.15;4.72;;;13.50;99.90;;;;;;5152199;27;20122;-70
2023/08/27 02:02:06;;;;;;;5.82;4.55;;;13.40;99.90;;;;;;5136788;27;20035;-70
2023/08/27 02:04:32;;;;;;;7.35;4.72;;;13.40;99.90;;;;;;5118002;27;20043;-70
2023/08/27 02:06:58;;;;;;;6.28;4.80;;;13.50;99.90;;;;;;5136978;27;20043;-69
2023/08/27 02:09:23;;;;;;;5.18;4.10;;;13.50;99.90;;;;;;5136827;27;20057;-70
2023/08/27 02:11:50;;;;;;;7.28;5.18;;;13.40;99.90;;;;;;5140295;27;20045;-70
2023/08/27 02:14:16;;;;;;;7.03;5.03;;;13.40;99.90;;;;;;5136267;27;20386;-70
2023/08/27 02:16:41;;;;;;;6.63;4.35;;;13.40;99.90;;;;;;5119163;27;20039;-70
2023/08/27 02:19:07;;;;;;;6.30;4.95;;;13.50;99.90;;;;;;5136841;27;20064;-70
2023/08/27 02:21:33;;;;;;;6.60;4.82;;;13.50;99.90;;;;;;5118662;27;20126;-70
2023/08/27 02:24:00;;;;;;;5.60;4.82;;;13.50;99.90;;;;;;5136223;27;20043;-70
2023/08/27 02:26:25;;;;;;;5.88;4.40;;;13.50;99.90;;;;;;5157206;27;20129;-69
2023/08/27 02:28:51;;;;;;;6.45;4.55;;;13.50;99.90;;;;;;5144904;27;20154;-70
2023/08/27 02:31:17;;;;;;;5.90;4.53;;;13.50;99.90;;;;;;5157106;27;20046;-70
2023/08/27 02:33:44;;;;;;;6.50;4.88;;;13.50;99.90;;;;;;5123536;27;20039;-70
2023/08/27 02:36:10;;;;;;;6.38;4.57;;;13.40;99.90;;;;;;5136500;27;20051;-70
2023/08/27 02:38:36;;;;;;;7.13;4.55;;;13.40;99.90;;;;;;5139358;27;20050;-70
2023/08/27 02:41:01;;;;;;;6.90;5.22;;;13.40;99.90;;;;;;5136266;27;20035;-70
2023/08/27 02:43:28;;;;;;;6.63;5.00;;;13.40;99.90;;;;;;5142412;27;20078;-70
2023/08/27 02:45:53;;;;;;;6.55;5.07;;;13.30;99.90;;;;;;5156880;27;20110;-70
2023/08/27 02:48:19;;;;;;;5.68;4.80;;;13.30;99.90;;;;;;5147774;27;20126;-70
2023/08/27 02:50:45;;;;;;;4.95;4.40;;;13.30;99.90;;;;;;5141279;27;20042;-70
2023/08/27 02:53:11;;;;;;;5.80;4.60;;;13.30;99.90;;;;;;5156535;27;20035;-70
2023/08/27 02:55:36;;;;;;;6.82;5.22;;;13.20;99.90;;;;;;5119218;27;20047;-70
2023/08/27 02:58:02;;;;;;;6.82;4.60;;;13.20;99.90;;;;;;5146415;27;20171;-70
2023/08/27 03:00:28;;;;;;;6.00;4.88;;;13.20;99.90;;;;;;5152409;27;20042;-70
2023/08/27 03:02:54;;;;;;;6.53;5.13;;;13.10;99.90;;;;;;5154338;27;20046;-70
2023/08/27 03:05:19;;;;;;;7.53;4.95;;;13.20;99.90;;;;;;5154729;27;20403;-70
2023/08/27 03:07:45;;;;;;;6.55;4.60;;;13.10;99.90;;;;;;5139609;27;20068;-70
2023/08/27 03:10:13;;;;;;;5.18;4.30;;;13.10;99.90;;;;;;5141846;27;20043;-70
2023/08/27 03:12:38;;;;;;;5.78;4.50;;;13.10;99.90;;;;;;5135417;27;20043;-71
2023/08/27 03:15:05;;;;;;;5.95;4.57;;;13.10;99.90;;;;;;5135703;27;20089;-70
2023/08/27 03:17:30;;;;;;;4.85;4.18;;;13.10;99.90;;;;;;5138486;27;20092;-70
2023/08/27 03:19:56;;;;;;;5.18;4.57;;;13.10;99.90;;;;;;5147148;27;20417;-70
2023/08/27 03:22:22;;;;;;;6.80;4.55;;;13.20;99.90;;;;;;5135428;27;20069;-70
2023/08/27 03:24:47;;;;;;;5.63;4.47;;;13.20;99.90;;;;;;5138906;27;20042;-70
2023/08/27 03:27:13;;;;;;;5.10;4.35;;;13.10;99.90;;;;;;5120979;27;20519;-70
2023/08/27 03:29:39;;;;;;;5.07;4.07;;;13.10;99.90;;;;;;5138141;27;20051;-70
2023/08/27 03:32:05;;;;;;;6.95;4.30;;;13.10;99.90;;;;;;5145330;27;20086;-70
2023/08/27 03:34:31;;;;;;;6.32;4.72;;;13.10;99.90;;;;;;5143498;27;20055;-70
2023/08/27 03:36:57;;;;;;;5.53;4.13;;;13.10;99.90;;;;;;5135181;27;20092;-70
2023/08/27 03:39:23;;;;;;;7.18;4.65;;;13.10;99.90;;;;;;5137413;27;20096;-70
2023/08/27 03:41:48;;;;;;;5.40;4.30;;;13.20;99.90;;;;;;5135015;27;20040;-70
2023/08/27 03:44:14;;;;;;;6.03;4.97;;;13.20;99.90;;;;;;5138362;27;20091;-70
2023/08/27 03:46:40;;;;;;;5.85;4.40;;;13.20;99.90;;;;;;5152127;27;20471;-70
2023/08/27 03:49:06;;;;;;;6.13;4.65;;;13.20;99.90;;;;;;5134988;27;20071;-70
2023/08/27 03:51:32;;;;;;;6.03;4.43;;;13.30;99.90;;;;;;5116439;27;20147;-70
2023/08/27 03:53:58;;;;;;;5.85;4.80;;;13.30;99.90;;;;;;5134845;27;20043;-71
2023/08/27 03:56:24;;;;;;;5.15;4.60;;;13.30;99.90;;;;;;5134658;27;20068;-71
2023/08/27 03:58:50;;;;;;;6.95;4.53;;;13.30;99.90;;;;;;5134702;27;20122;-70
2023/08/27 04:01:16;;;;;;;6.90;5.03;;;13.30;99.90;;;;;;5145199;27;20049;-70
2023/08/27 04:03:42;;;;;;;6.63;5.20;;;13.30;99.90;;;;;;5153882;27;20436;-70
2023/08/27 04:06:12;;;;;;;5.90;4.57;;;13.30;99.90;;;;;;5134201;27;20078;-70
2023/08/27 04:08:38;;;;;;;5.28;4.40;;;13.30;99.90;;;;;;5135192;27;20495;-70
2023/08/27 04:11:04;;;;;;;6.35;4.03;;;13.30;99.90;;;;;;5126020;27;20046;-70
2023/08/27 04:13:31;;;;;;;7.18;4.47;;;13.30;99.90;;;;;;5133738;27;20078;-70
2023/08/27 04:16:05;;;;;;;5.22;3.97;;;13.30;99.90;;;;;;5134585;27;20039;-70
2023/08/27 04:18:34;;;;;;;5.75;4.53;;;13.30;99.90;;;;;;5139195;27;20079;-70
2023/08/27 04:21:01;;;;;;;4.75;3.97;;;13.30;99.90;;;;;;5134460;27;20031;-70
2023/08/27 04:23:27;;;;;;;5.55;4.25;;;13.30;99.90;;;;;;5129658;27;20356;-70
2023/08/27 04:25:53;;;;;;;6.22;4.43;;;13.30;99.90;;;;;;5152045;27;20041;-70
2023/08/27 04:28:19;;;;;;;5.32;4.03;;;13.30;99.90;;;;;;5134724;27;20075;-70
2023/08/27 04:30:49;;;;;;;4.72;3.40;;;13.20;99.90;;;;;;5144176;27;20429;-70
2023/08/27 04:33:15;;;;;;;5.18;4.18;;;13.20;99.90;;;;;;5148218;27;20055;-70
2023/08/27 04:35:42;;;;;;;5.25;4.07;;;13.10;99.90;;;;;;5134394;27;20051;-69
2023/08/27 04:38:08;;;;;;;5.97;4.68;;;13.10;99.90;;;;;;5142370;27;20511;-69
2023/08/27 04:40:34;;;;;;;5.15;4.32;;;13.10;99.90;;;;;;5133664;27;20047;-69
2023/08/27 04:43:00;;;;;;;5.32;4.32;;;13.10;99.90;;;;;;5114914;28;20066;-70
2023/08/27 04:45:26;;;;;;;5.90;4.30;;;13.20;99.90;;;;;;5133526;27;20130;-70
2023/08/27 04:47:51;;;;;;;5.28;4.07;;;13.20;99.90;;;;;;5133859;27;20031;-70
2023/08/27 04:50:17;;;;;;;5.97;4.05;;;13.20;99.90;;;;;;5134049;27;20047;-70
2023/08/27 04:52:43;;;;;;;6.57;4.53;;;13.20;99.90;;;;;;5115904;28;20039;-70
2023/08/27 04:55:09;;;;;;;7.05;4.40;;;13.20;99.90;;;;;;5133881;27;20498;-70
2023/08/27 04:57:37;;;;;;;5.78;4.40;;;13.20;99.90;;;;;;5133950;27;20121;-70
2023/08/27 05:00:04;;;;;;;7.15;4.75;;;13.20;99.90;;;;;;5133855;27;20394;-69
2023/08/27 05:02:30;;;;;;;4.97;4.10;;;13.20;99.90;;;;;;5134127;27;20049;-69
2023/08/27 05:04:55;;;;;;;7.28;5.18;;;13.30;99.90;;;;;;5133465;27;20035;-69
2023/08/27 05:07:21;;;;;;;6.70;5.13;;;13.30;99.90;;;;;;5133717;27;20035;-69
2023/08/27 05:09:47;;;;;;;5.65;4.80;;;13.30;99.90;;;;;;5134242;27;20051;-70
2023/08/27 05:12:12;;;;;;;5.20;4.55;;;13.40;99.90;;;;;;5133668;27;20043;-70
2023/08/27 05:14:38;;;;;;;7.30;4.88;;;13.50;99.90;;;;;;5133803;27;20438;-70
2023/08/27 05:17:04;;;;;;;7.25;5.45;;;13.50;99.90;;;;;;5134128;27;20432;-70
2023/08/27 05:19:29;;;;;;;6.38;4.97;;;13.50;99.90;;;;;;5133594;27;20051;-70
2023/08/27 05:21:55;;;;;;;5.68;4.97;;;13.50;99.90;;;;;;5133678;28;20074;-70
2023/08/27 05:24:21;;;;;;;6.70;4.95;;;13.60;99.90;;;;;;5148429;27;20118;-70
2023/08/27 05:26:46;;;;;;;6.45;5.38;;;13.60;99.90;;;;;;5155537;27;20046;-69
2023/08/27 05:29:12;;;;;;;6.18;5.30;;;13.60;99.90;;;;;;5137423;27;20053;-69
2023/08/27 05:31:38;;;;;;;8.25;5.30;;;13.70;99.90;;;;;;5119569;27;20050;-69
2023/08/27 05:34:03;;;;;;;7.78;5.40;;;13.80;99.90;;;;;;5148380;27;20035;-70
2023/08/27 05:36:29;;;;;;;7.03;5.15;;;13.80;99.90;;;;;;5137432;27;20118;-70
2023/08/27 05:38:55;;;;;;;7.75;5.53;;;13.90;99.90;;;;;;5148726;27;20466;-70
2023/08/27 05:41:20;;;;;;;7.95;5.25;;;13.90;99.90;;;;;;5141741;27;20043;-70
2023/08/27 05:43:48;;;;;;;6.70;5.47;;;14.00;99.90;;;;;;5158355;27;20039;-70
2023/08/27 05:46:14;;;;;;;6.75;5.30;;;14.00;99.90;;;;;;5143266;27;20092;-69
2023/08/27 05:48:40;;;;;;;9.48;5.65;;;14.10;99.90;;;;;;5141338;27;20429;-70
2023/08/27 05:51:06;;;;;;;6.93;5.32;;;14.10;99.90;;;;;;5158005;27;20045;-70
2023/08/27 05:53:32;;;;;;;6.43;5.20;;;14.20;99.90;;;;;;5140092;27;20050;-70
2023/08/27 05:55:58;;;;;;;6.43;5.30;;;14.20;99.90;;;;;;5137201;27;20499;-70
2023/08/27 05:58:23;;;;;;;6.53;5.50;;;14.30;99.90;;;;;;5151898;27;20041;-70
2023/08/27 06:00:53;;;;;;;6.90;5.68;;;14.30;99.90;;;;;;5153602;27;20073;-69
2023/08/27 06:03:22;;;;;;;6.20;5.53;;;14.30;99.90;;;;;;5154829;27;20050;-69
2023/08/27 06:05:48;;;;;;;7.10;5.40;;;14.30;99.90;;;;;;5139076;27;20051;-69
2023/08/27 06:08:14;;;;;;;6.90;5.72;;;14.30;99.90;;;;;;5143049;27;20043;-69
2023/08/27 06:10:43;;;;;;;7.28;5.28;;;14.30;99.90;;;;;;5155347;27;20498;-70
2023/08/27 06:13:08;;;;;;;8.40;5.28;;;14.30;99.90;;;;;;5137991;27;20047;-71
2023/08/27 06:15:34;;;;;;;6.65;5.15;;;14.20;99.90;;;;;;5118770;27;20042;-70
2023/08/27 06:18:03;;;;;;;5.88;4.30;;;14.00;99.90;;;;;;5122507;27;20054;-71
2023/08/27 06:20:33;;;;;;;6.53;4.60;;;13.90;99.90;;;;;;5153486;27;20513;-71
2023/08/27 06:23:00;;;;;;;7.70;4.57;;;13.90;99.90;;;;;;5152340;27;20047;-70
2023/08/27 06:25:26;;;;;;;5.93;4.35;;;13.90;99.90;;;;;;5146621;27;20039;-71
2023/08/27 06:27:55;;;;;;;6.07;4.35;;;13.90;99.90;;;;;;5136256;27;20035;-71
2023/08/27 06:30:20;;;;;;;6.95;4.45;;;13.90;99.90;;;;;;5137012;27;20085;-71
2023/08/27 06:32:46;;;;;;;5.65;4.15;;;13.90;99.90;;;;;;5136055;27;20118;-70
2023/08/27 06:35:12;;;;;;;5.72;4.03;;;13.90;99.90;;;;;;5136423;27;20043;-66
2023/08/27 06:37:37;;;;;;;6.00;4.40;;;13.90;99.90;;;;;;5135431;27;20031;-65
2023/08/27 06:40:03;;;;;;;4.82;3.58;;;13.90;99.90;;;;;;5135903;27;20043;-65
2023/08/27 06:42:29;;;;;;;5.95;3.85;;;13.90;99.90;;;;;;5136455;27;20043;-66
2023/08/27 06:44:55;;;;;;;5.63;3.65;;;13.90;99.90;;;;;;5118067;27;20130;-66
2023/08/27 06:47:20;;;;;;;5.65;4.05;;;13.80;99.90;;;;;;5135595;27;20065;-66
2023/08/27 06:49:47;;;;;;;4.95;4.00;;;13.80;99.90;;;;;;5117807;27;20048;-66
2023/08/27 06:52:13;;;;;;;7.30;4.05;;;13.80;99.90;;;;;;5149094;27;20083;-66
2023/08/27 06:54:38;;;;;;;6.05;3.83;;;13.70;99.90;;;;;;5154072;27;20121;-65
2023/08/27 06:57:04;;;;;;;7.15;4.05;;;13.70;99.90;;;;;;5118030;27;20047;-65
2023/08/27 06:59:30;;;;;;;7.32;3.85;;;13.70;99.90;;;;;;5135892;27;20043;-65
2023/08/27 07:01:56;;;;;;;5.25;3.65;;;13.60;99.90;;;;;;5138563;27;20043;-65
2023/08/27 07:04:21;;;;;;;5.53;3.88;;;13.60;99.90;;;;;;5135522;27;20074;-65
2023/08/27 07:06:47;;;;;;;5.63;3.60;;;13.60;99.90;;;;;;5135210;27;20043;-66
2023/08/27 07:09:13;;;;;;;4.72;3.65;;;13.60;99.90;;;;;;5135536;27;20047;-65
2023/08/27 07:11:38;;;;;;;4.50;3.40;;;13.60;99.90;;;;;;5135588;27;20050;-65
2023/08/27 07:14:04;;;;;;;5.53;3.67;;;13.50;99.90;;;;;;5136524;27;20104;-65
2023/08/27 07:16:29;;;;;;;7.10;3.72;;;13.50;99.90;;;;;;5152908;27;20049;-65
2023/08/27 07:18:55;;;;;;;4.93;4.05;;;13.60;99.90;;;;;;5135723;27;20409;-65
2023/08/27 07:21:21;;;;;;;8.90;3.53;;;13.60;99.90;;;;;;5135621;27;20121;-65
2023/08/27 07:23:47;;;;;;;6.43;3.30;;;13.60;99.90;;;;;;5136962;27;20114;-65
2023/08/27 07:26:12;;;;;;;4.30;3.22;;;13.60;99.90;;;;;;5139340;27;20035;-65
2023/08/27 07:28:38;;;;;;;4.70;2.50;;;13.60;99.90;;;;;;5156273;27;20137;-66
2023/08/27 07:31:04;;;;;;;5.85;2.70;;;13.60;99.90;;;;;;5155778;27;20055;-65
2023/08/27 07:33:32;;;;;;;4.75;2.95;;;13.60;99.90;;;;;;5154554;27;20091;-65
2023/08/27 07:35:57;;;;;;;4.18;2.80;;;13.70;99.90;;;;;;5155957;27;20043;-65
2023/08/27 07:38:26;;;;;;;6.22;3.03;;;13.80;99.90;;;;;;5152993;27;20067;-68
2023/08/27 07:40:52;;;;;;;5.05;2.78;;;14.00;99.90;;;;;;5146427;27;20118;-68
2023/08/27 07:43:18;;;;;;;6.13;3.17;;;14.30;99.90;;;;;;5151030;27;20103;-66
2023/08/27 07:45:44;;;;;;;3.50;2.30;;;14.60;99.90;;;;;;5145790;27;20475;-67
2023/08/27 07:48:09;;;;;;;5.30;2.95;;;14.70;99.90;;;;;;5149586;27;20463;-66
2023/08/27 07:50:35;;;;;;;2.58;1.80;;;14.70;99.90;;;;;;5144907;27;20086;-66
2023/08/27 07:53:01;;;;;;;2.28;1.77;;;14.90;99.90;;;;;;5148414;27;20038;-67
2023/08/27 07:55:31;;;;;;;2.17;1.23;;;15.00;99.90;;;;;;5132257;27;20047;-67
2023/08/27 07:57:57;;;;;;;2.10;1.33;;;15.10;99.90;;;;;;5129851;27;20066;-67
2023/08/27 08:00:23;;;;;;;2.50;1.50;;;15.20;99.90;;;;;;5154552;27;20046;-66
2023/08/27 08:02:48;;;;;;;3.65;1.60;;;15.30;99.90;;;;;;5154375;27;20045;-66
2023/08/27 08:05:14;;;;;;;2.35;1.15;;;15.30;99.90;;;;;;5154536;27;20104;-66
2023/08/27 08:07:40;;;;;;;3.00;1.30;;;15.20;99.90;;;;;;5148104;27;20038;-66
2023/08/27 08:10:06;;;;;;;2.63;1.80;;;15.30;99.90;;;;;;5150751;27;20077;-66
2023/08/27 08:12:32;;;;;;;3.00;1.40;;;15.30;99.90;;;;;;5149807;27;20046;-67
2023/08/27 08:14:58;;;;;;;2.40;1.30;;;15.30;99.90;;;;;;5153457;27;20054;-67
2023/08/27 08:17:23;;;;;;;2.72;1.10;;;15.30;99.90;;;;;;5151139;27;20566;-68
2023/08/27 08:19:50;;;;;;;3.42;1.00;;;15.30;99.90;;;;;;5148380;27;20056;-67
2023/08/27 08:22:16;;;;;;;3.25;1.40;;;15.40;99.90;;;;;;5150701;27;20120;-67
2023/08/27 08:24:42;;;;;;;2.20;1.08;;;15.50;99.90;;;;;;5148802;27;20093;-67
2023/08/27 08:27:08;;;;;;;2.13;1.27;;;15.50;99.90;;;;;;5130700;27;20042;-67
2023/08/27 08:29:34;;;;;;;2.28;1.40;;;15.50;99.90;;;;;;5152096;27;20051;-67
2023/08/27 08:32:00;;;;;;;2.22;1.10;;;15.40;99.90;;;;;;5152105;27;20107;-67
2023/08/27 08:34:28;;;;;;;2.40;1.38;;;15.40;99.90;;;;;;5152977;27;20050;-67
2023/08/27 08:36:55;;;;;;;2.38;1.30;;;15.60;99.90;;;;;;5133553;27;20035;-68
2023/08/27 08:39:20;;;;;;;2.92;1.15;;;15.80;99.90;;;;;;5133066;27;20050;-67
2023/08/27 08:42:14;;;;;;;2.13;1.10;;;15.90;99.90;;;;;;5134056;27;20043;-67
2023/08/27 08:45:16;;;;;;;2.30;1.35;;;16.10;99.90;;;;;;5140063;27;20115;-67
2023/08/27 08:47:43;;;;;;;2.45;1.35;;;16.30;99.90;;;;;;5114140;27;20390;-65
2023/08/27 08:50:10;;;;;;;1.95;1.10;;;16.30;99.90;;;;;;5135605;27;20441;-67
2023/08/27 08:52:41;;;;;;;3.28;1.20;;;16.30;99.90;;;;;;5153985;27;20046;-68
2023/08/27 08:55:11;;;;;;;3.30;1.38;;;16.30;99.90;;;;;;5135119;27;20038;-69
2023/08/27 08:57:50;;;;;;;2.10;1.20;;;16.30;99.90;;;;;;5154003;27;20459;-69
2023/08/27 09:00:18;;;;;;;1.92;1.10;;;16.50;99.90;;;;;;5155728;27;20046;-69
2023/08/27 09:02:46;;;;;;;3.08;1.60;;;16.50;99.90;;;;;;5158237;27;20376;-67
2023/08/27 09:05:12;;;;;;;2.50;1.40;;;16.50;99.90;;;;;;5139428;27;20471;-68
2023/08/27 09:07:39;;;;;;;2.60;1.70;;;16.60;99.90;;;;;;5154102;27;20399;-69
2023/08/27 09:10:05;;;;;;;4.13;2.00;;;16.80;99.90;;;;;;5147728;27;20031;-68
2023/08/27 09:12:30;;;;;;;3.03;1.70;;;16.80;99.90;;;;;;5146219;27;20047;-68
2023/08/27 09:14:58;;;;;;;3.08;1.90;;;16.90;99.90;;;;;;5127235;27;20444;-68
2023/08/27 09:17:23;;;;;;;3.40;1.90;;;16.90;99.90;;;;;;5142469;27;20039;-67
2023/08/27 09:19:51;;;;;;;3.42;2.05;;;16.90;99.90;;;;;;5137543;27;20407;-65
2023/08/27 09:22:18;;;;;;;2.90;1.90;;;17.00;99.90;;;;;;5148854;27;20152;-64
2023/08/27 09:24:44;;;;;;;4.70;2.10;;;16.90;99.90;;;;;;5137404;27;20039;-67
2023/08/27 09:27:12;;;;;;;3.40;2.22;;;17.00;99.90;;;;;;5158052;27;20053;-66
2023/08/27 09:29:39;;;;;;;3.83;2.05;;;17.10;99.90;;;;;;5157700;27;20512;-66
2023/08/27 09:32:05;;;;;;;3.67;1.90;;;17.30;99.90;;;;;;5151861;27;20441;-66
2023/08/27 09:34:38;;;;;;;2.95;2.10;;;17.40;99.90;;;;;;5148752;27;20049;-67
2023/08/27 09:37:06;;;;;;;3.67;1.77;;;17.50;99.90;;;;;;5157711;27;20103;-66
2023/08/27 09:39:32;;;;;;;3.72;2.30;;;17.50;99.90;;;;;;5137770;27;20047;-66
2023/08/27 09:41:59;;;;;;;3.72;2.00;;;17.70;99.90;;;;;;5137056;27;20100;-67
2023/08/27 09:44:25;;;;;;;4.82;2.28;;;17.70;99.90;;;;;;5119042;27;20108;-66
2023/08/27 09:46:51;;;;;;;3.85;2.50;;;17.80;99.90;;;;;;5117899;27;20468;-67
2023/08/27 09:49:22;;;;;;;3.72;2.15;;;17.80;99.90;;;;;;5136814;27;20092;-66
2023/08/27 09:51:48;;;;;;;3.65;2.25;;;17.60;99.90;;;;;;5136740;27;20400;-66
2023/08/27 09:54:19;;;;;;;3.58;2.00;;;17.70;99.90;;;;;;5136941;27;20047;-66
2023/08/27 09:56:47;;;;;;;4.03;2.13;;;17.70;99.90;;;;;;5136927;27;20051;-66
2023/08/27 09:59:19;;;;;;;3.20;1.67;;;17.70;99.90;;;;;;5136768;27;20044;-66
2023/08/27 10:01:49;;;;;;;4.05;2.05;;;17.80;99.90;;;;;;5136678;27;20054;-66
2023/08/27 10:04:17;;;;;;;4.28;1.90;;;17.80;99.90;;;;;;5136570;27;20051;-66
2023/08/27 10:06:43;;;;;;;3.50;2.30;;;17.70;99.90;;;;;;5118674;27;20104;-65
2023/08/27 10:09:09;;;;;;;4.00;2.30;;;17.70;99.90;;;;;;5136625;27;20047;-66
2023/08/27 10:11:36;;;;;;;2.85;2.10;;;17.90;99.90;;;;;;5135787;27;20047;-66
2023/08/27 10:14:05;;;;;;;2.70;1.67;;;18.10;99.90;;;;;;5136350;27;20526;-67
2023/08/27 10:16:31;;;;;;;3.50;2.10;;;18.20;99.90;;;;;;5118528;27;20157;-67
2023/08/27 10:18:58;;;;;;;3.72;2.15;;;18.30;99.90;;;;;;5136694;27;20047;-68
2023/08/27 10:21:24;;;;;;;4.35;2.30;;;18.30;99.90;;;;;;5136691;27;20054;-67
2023/08/27 10:23:50;;;;;;;3.25;2.00;;;18.20;99.90;;;;;;5141990;27;20038;-67
2023/08/27 10:26:16;;;;;;;3.45;2.13;;;18.00;99.90;;;;;;5138434;27;20039;-67
2023/08/27 10:28:43;;;;;;;4.30;2.28;;;17.90;99.90;;;;;;5157054;27;20477;-66
2023/08/27 10:31:09;;;;;;;3.63;2.00;;;17.80;99.90;;;;;;5138017;27;20487;-66
2023/08/27 10:33:35;;;;;;;3.08;1.80;;;17.70;99.90;;;;;;5141581;27;20057;-66
2023/08/27 10:36:07;;;;;;;3.97;1.92;;;17.60;99.90;;;;;;5157101;27;20061;-66
2023/08/27 10:38:36;;;;;;;3.35;1.80;;;17.50;99.90;;;;;;5145366;27;20039;-65
2023/08/27 10:41:03;;;;;;;2.30;1.60;;;17.50;99.90;;;;;;5136186;27;20039;-65
2023/08/27 10:43:36;;;;;;;2.58;1.95;;;17.50;99.90;;;;;;5136355;27;20123;-66
2023/08/27 10:46:14;;;;;;;2.38;1.73;;;17.70;99.90;;;;;;5118040;27;20082;-65
2023/08/27 10:48:40;;;;;;;3.75;1.80;;;18.00;99.90;;;;;;5136023;27;20396;-67
2023/08/27 10:51:11;;;;;;;2.85;1.75;;;18.10;99.90;;;;;;5135857;27;20043;-65
2023/08/27 10:53:40;;;;;;;5.63;2.10;;;18.10;99.90;;;;;;5135961;27;20051;-66
2023/08/27 10:56:31;;;;;;;4.65;2.20;;;18.10;99.90;;;;;;5117786;27;20050;-66
2023/08/27 10:59:01;;;;;;;3.05;1.80;;;18.10;99.90;;;;;;5117406;27;20047;-66
2023/08/27 11:01:27;;;;;;;3.17;1.70;;;18.20;99.90;;;;;;5135448;27;20123;-67
2023/08/27 11:04:00;;;;;;;2.65;1.52;;;18.20;99.90;;;;;;5134769;27;20082;-67
2023/08/27 11:06:46;;;;;;;2.47;1.38;;;18.40;99.90;;;;;;5135450;27;20143;-66
2023/08/27 11:09:12;;;;;;;3.75;1.45;;;18.50;99.90;;;;;;5117486;27;20531;-67
2023/08/27 11:12:03;;;;;;;2.10;1.30;;;18.70;99.90;;;;;;5134954;27;20133;-67
2023/08/27 11:14:35;;;;;;;4.15;1.60;;;19.10;99.90;;;;;;5135472;27;20039;-66
2023/08/27 11:17:03;;;;;;;3.03;1.63;;;19.20;99.90;;;;;;5122136;27;20104;-66
2023/08/27 11:19:37;;;;;;;3.65;1.80;;;19.30;99.90;;;;;;5117361;27;20039;-66
2023/08/27 11:22:14;;;;;;;3.88;2.05;;;19.30;99.90;;;;;;5135550;27;20077;-65
2023/08/27 11:24:45;;;;;;;2.65;1.70;;;19.30;99.90;;;;;;5135362;27;20051;-66
2023/08/27 11:27:12;;;;;;;3.63;1.52;;;19.40;99.90;;;;;;5135421;27;20051;-66
2023/08/27 11:29:40;;;;;;;3.05;1.42;;;19.30;99.90;;;;;;5134993;27;20078;-67
2023/08/27 11:32:10;;;;;;;3.75;1.58;;;19.40;99.90;;;;;;5141330;27;20043;-66
2023/08/27 11:34:40;;;;;;;3.75;1.83;;;19.50;99.90;;;;;;5154990;27;20080;-67
2023/08/27 11:37:07;;;;;;;4.80;1.83;;;19.50;99.90;;;;;;5155946;27;20050;-67
2023/08/27 11:39:35;;;;;;;3.45;1.50;;;19.60;99.90;;;;;;5135387;27;20039;-67
2023/08/27 11:42:01;;;;;;;2.97;1.50;;;19.70;99.90;;;;;;5116466;27;20047;-67
2023/08/27 11:44:26;;;;;;;2.20;1.48;;;19.60;99.90;;;;;;5134968;27;20118;-66
2023/08/27 11:46:52;;;;;;;2.42;1.73;;;19.40;99.90;;;;;;5134510;27;20039;-66
2023/08/27 11:49:35;;;;;;;3.60;1.85;;;19.30;99.90;;;;;;5134854;27;20138;-66
2023/08/27 11:52:02;;;;;;;3.83;2.00;;;19.30;99.90;;;;;;5134626;27;20126;-67
2023/08/27 11:54:32;;;;;;;2.97;1.80;;;19.30;99.90;;;;;;5134662;27;20072;-66
2023/08/27 11:56:58;;;;;;;3.63;1.83;;;19.40;99.90;;;;;;5116674;27;20062;-66
2023/08/27 11:59:28;;;;;;;3.15;1.92;;;19.50;99.90;;;;;;5134878;27;20043;-66
2023/08/27 12:01:57;;;;;;;3.85;2.03;;;19.40;99.90;;;;;;5134650;27;20137;-65
2023/08/27 12:04:29;;;;;;;2.45;1.73;;;19.30;99.90;;;;;;5134759;27;20121;-64
2023/08/27 12:07:00;;;;;;;2.78;1.63;;;19.20;99.90;;;;;;5134674;27;20087;-65
2023/08/27 12:09:31;;;;;;;2.30;1.60;;;19.10;99.90;;;;;;5116880;27;20051;-65
2023/08/27 12:12:07;;;;;;;2.45;1.50;;;19.00;99.90;;;;;;5136507;27;20038;-65
2023/08/27 12:14:34;;;;;;;3.13;1.70;;;18.80;99.90;;;;;;5132670;27;20046;-66
2023/08/27 12:17:03;;;;;;;3.00;1.77;;;18.60;99.90;;;;;;5149648;27;20031;-65
2023/08/27 12:19:30;;;;;;;3.30;1.45;;;18.50;99.90;;;;;;5132315;27;20043;-65
2023/08/27 12:21:58;;;;;;;2.30;1.42;;;18.30;99.90;;;;;;5153058;27;20495;-66
2023/08/27 12:24:32;;;;;;;3.55;1.42;;;18.20;99.90;;;;;;5136720;27;20078;-64
2023/08/27 12:27:06;;;;;;;2.45;1.30;;;18.10;99.90;;;;;;5139838;27;20038;-65
2023/08/27 12:29:42;;;;;;;2.92;1.63;;;18.00;99.90;;;;;;5142959;27;20047;-65
2023/08/27 12:32:10;;;;;;;2.38;1.60;;;17.70;99.90;;;;;;5144479;27;20031;-65
2023/08/27 12:34:56;;;;;;;2.47;1.58;;;17.40;99.90;;;;;;5144369;27;20042;-65
2023/08/27 12:37:22;;;;;;;2.40;1.50;;;16.90;99.90;;;;;;5141374;27;20189;-65
2023/08/27 12:39:48;;;;;;;7.57;2.00;;;16.30;99.90;;;;;;5144975;27;20078;-65
2023/08/27 12:42:15;;;;;;;4.95;2.80;;;15.80;99.90;;;;;;5145273;27;20046;-65
2023/08/27 12:44:42;;;;;;;4.45;2.80;;;15.30;99.90;;;;;;5143975;27;20074;-66
2023/08/27 12:47:08;;;;;;;4.45;2.75;;;14.90;99.90;;;;;;5142851;27;20039;-65
2023/08/27 12:49:35;;;;;;;4.00;2.45;;;14.80;99.90;;;;;;5145235;27;20034;-66